SBOSBO JNX / LGNX
Speedbird OnlineSpeedbird Online JNX / LGNX

Naxos Airport
02:58 12.2°C

Location Cyclades Islands, Greece
Latitude: 37.0811004639
Longitude: 25.3680992126
Altitude 3 Meter / 10 Feet
Distance 2,549 KM / 1,584 Miles
from London.
Time Zone UTC +2 hours (Europe/Athens)
Codes IATA: JNX
ICAO: LGNX
Currency £1 equals EUR 1.14
Runways
RunwayLength (m)Surface
18900UNK
36900UNK
Radio
TypeDescriptionFrequency
Live ATC
METAR LGNX 261150Z 16017G27KT 9999 FEW015 SCT020 17/11 Q1012
TAF
Weather As Of 27 Jan 2023 02:58
Description Clear sky
Wind 24 km/h from South (196°)
Cloud Cover 7%
Precipitation Rain: none, Snow: none
Sunrise 07:25
Sunset 17:36



Support Speedbird Online

© 2017-2023 Speedbird Online